sensor_id;sensor_type;location;lat;lon;timestamp;P1;durP1;ratioP1;P2;durP2;ratioP2
16113;SDS011;8161;-33.910;151.156;2023-08-21T00:02:10;3.45;;;0.82;;
16113;SDS011;8161;-33.910;151.156;2023-08-21T00:04:41;2.28;;;0.90;;
16113;SDS011;8161;-33.910;151.156;2023-08-21T00:07:10;1.65;;;0.80;;
16113;SDS011;8161;-33.910;151.156;2023-08-21T00:09:47;1.67;;;0.80;;
16113;SDS011;8161;-33.910;151.156;2023-08-21T00:12:14;3.47;;;0.70;;
16113;SDS011;8161;-33.910;151.156;2023-08-21T00:14:41;2.28;;;0.90;;
16113;SDS011;8161;-33.910;151.156;2023-08-21T00:17:08;1.90;;;0.98;;
16113;SDS011;8161;-33.910;151.156;2023-08-21T00:19:38;1.40;;;0.60;;
16113;SDS011;8161;-33.910;151.156;2023-08-21T00:22:05;1.45;;;0.57;;
16113;SDS011;8161;-33.910;151.156;2023-08-21T00:24:32;1.33;;;0.63;;
16113;SDS011;8161;-33.910;151.156;2023-08-21T00:26:59;2.75;;;1.00;;
16113;SDS011;8161;-33.910;151.156;2023-08-21T00:29:29;2.13;;;0.68;;
16113;SDS011;8161;-33.910;151.156;2023-08-21T00:31:57;1.50;;;0.70;;
16113;SDS011;8161;-33.910;151.156;2023-08-21T00:34:24;2.30;;;1.00;;
16113;SDS011;8161;-33.910;151.156;2023-08-21T00:36:54;1.65;;;0.60;;
16113;SDS011;8161;-33.910;151.156;2023-08-21T00:39:21;1.65;;;0.80;;
16113;SDS011;8161;-33.910;151.156;2023-08-21T00:41:48;2.17;;;0.60;;
16113;SDS011;8161;-33.910;151.156;2023-08-21T00:44:15;2.42;;;0.75;;
16113;SDS011;8161;-33.910;151.156;2023-08-21T00:46:42;1.83;;;0.98;;
16113;SDS011;8161;-33.910;151.156;2023-08-21T00:49:10;2.45;;;0.80;;
16113;SDS011;8161;-33.910;151.156;2023-08-21T00:51:38;1.90;;;0.95;;
16113;SDS011;8161;-33.910;151.156;2023-08-21T00:54:05;2.53;;;0.90;;
16113;SDS011;8161;-33.910;151.156;2023-08-21T00:56:32;1.92;;;0.73;;
16113;SDS011;8161;-33.910;151.156;2023-08-21T00:59:00;3.97;;;0.95;;
16113;SDS011;8161;-33.910;151.156;2023-08-21T01:01:30;2.72;;;0.85;;
16113;SDS011;8161;-33.910;151.156;2023-08-21T01:03:58;2.70;;;0.77;;
16113;SDS011;8161;-33.910;151.156;2023-08-21T01:06:25;2.15;;;0.88;;
16113;SDS011;8161;-33.910;151.156;2023-08-21T01:08:57;1.63;;;0.80;;
16113;SDS011;8161;-33.910;151.156;2023-08-21T01:16:34;1.85;;;0.77;;
16113;SDS011;8161;-33.910;151.156;2023-08-21T01:19:02;4.80;;;0.93;;
16113;SDS011;8161;-33.910;151.156;2023-08-21T01:21:30;2.65;;;0.73;;
16113;SDS011;8161;-33.910;151.156;2023-08-21T01:23:57;1.60;;;0.65;;
16113;SDS011;8161;-33.910;151.156;2023-08-21T01:26:24;2.70;;;0.90;;
16113;SDS011;8161;-33.910;151.156;2023-08-21T01:28:52;2.97;;;1.00;;
16113;SDS011;8161;-33.910;151.156;2023-08-21T01:34:05;1.63;;;0.70;;
16113;SDS011;8161;-33.910;151.156;2023-08-21T01:36:34;2.85;;;0.90;;
16113;SDS011;8161;-33.910;151.156;2023-08-21T01:39:01;2.63;;;0.90;;
16113;SDS011;8161;-33.910;151.156;2023-08-21T01:41:29;1.63;;;0.90;;
16113;SDS011;8161;-33.910;151.156;2023-08-21T01:43:56;1.40;;;0.77;;
16113;SDS011;8161;-33.910;151.156;2023-08-21T01:46:23;2.00;;;0.60;;
16113;SDS011;8161;-33.910;151.156;2023-08-21T01:48:50;1.50;;;0.50;;
16113;SDS011;8161;-33.910;151.156;2023-08-21T01:51:17;1.30;;;0.60;;
16113;SDS011;8161;-33.910;151.156;2023-08-21T01:53:48;1.30;;;0.70;;
16113;SDS011;8161;-33.910;151.156;2023-08-21T01:56:15;2.08;;;0.80;;
16113;SDS011;8161;-33.910;151.156;2023-08-21T01:58:45;1.40;;;0.60;;
16113;SDS011;8161;-33.910;151.156;2023-08-21T02:01:12;1.57;;;0.70;;
16113;SDS011;8161;-33.910;151.156;2023-08-21T02:03:40;2.43;;;0.80;;
16113;SDS011;8161;-33.910;151.156;2023-08-21T02:06:10;1.77;;;0.60;;
16113;SDS011;8161;-33.910;151.156;2023-08-21T02:08:37;1.92;;;0.70;;
16113;SDS011;8161;-33.910;151.156;2023-08-21T02:11:04;2.58;;;0.80;;
16113;SDS011;8161;-33.910;151.156;2023-08-21T02:13:31;2.08;;;0.70;;
16113;SDS011;8161;-33.910;151.156;2023-08-21T02:15:58;2.92;;;1.10;;
16113;SDS011;8161;-33.910;151.156;2023-08-21T02:18:25;1.70;;;0.80;;
16113;SDS011;8161;-33.910;151.156;2023-08-21T02:20:53;2.10;;;0.82;;
16113;SDS011;8161;-33.910;151.156;2023-08-21T02:23:20;2.45;;;0.82;;
16113;SDS011;8161;-33.910;151.156;2023-08-21T02:25:47;2.03;;;0.90;;
16113;SDS011;8161;-33.910;151.156;2023-08-21T02:28:14;2.05;;;0.80;;
16113;SDS011;8161;-33.910;151.156;2023-08-21T02:30:42;4.35;;;0.82;;
16113;SDS011;8161;-33.910;151.156;2023-08-21T02:33:12;2.63;;;0.70;;
16113;SDS011;8161;-33.910;151.156;2023-08-21T02:35:39;1.95;;;0.80;;
16113;SDS011;8161;-33.910;151.156;2023-08-21T02:38:06;1.88;;;0.65;;
16113;SDS011;8161;-33.910;151.156;2023-08-21T02:40:37;2.38;;;0.50;;
16113;SDS011;8161;-33.910;151.156;2023-08-21T02:43:04;2.53;;;0.63;;
16113;SDS011;8161;-33.910;151.156;2023-08-21T02:45:31;1.40;;;0.68;;
16113;SDS011;8161;-33.910;151.156;2023-08-21T02:47:58;1.60;;;0.70;;
16113;SDS011;8161;-33.910;151.156;2023-08-21T02:50:26;1.35;;;0.70;;
16113;SDS011;8161;-33.910;151.156;2023-08-21T02:52:53;1.55;;;0.80;;
16113;SDS011;8161;-33.910;151.156;2023-08-21T02:55:20;1.05;;;0.60;;
16113;SDS011;8161;-33.910;151.156;2023-08-21T02:57:47;1.48;;;0.70;;
16113;SDS011;8161;-33.910;151.156;2023-08-21T03:00:14;3.42;;;0.80;;
16113;SDS011;8161;-33.910;151.156;2023-08-21T03:02:41;2.10;;;0.50;;
16113;SDS011;8161;-33.910;151.156;2023-08-21T03:05:09;1.13;;;0.60;;
16113;SDS011;8161;-33.910;151.156;2023-08-21T03:07:36;1.80;;;0.70;;
16113;SDS011;8161;-33.910;151.156;2023-08-21T03:10:05;3.17;;;0.80;;
16113;SDS011;8161;-33.910;151.156;2023-08-21T03:12:33;1.40;;;0.60;;
16113;SDS011;8161;-33.910;151.156;2023-08-21T03:15:00;2.28;;;0.68;;
16113;SDS011;8161;-33.910;151.156;2023-08-21T03:17:28;1.20;;;0.70;;
16113;SDS011;8161;-33.910;151.156;2023-08-21T03:19:58;2.70;;;0.73;;
16113;SDS011;8161;-33.910;151.156;2023-08-21T03:22:25;1.70;;;0.70;;
16113;SDS011;8161;-33.910;151.156;2023-08-21T03:24:52;2.20;;;0.60;;
16113;SDS011;8161;-33.910;151.156;2023-08-21T03:27:29;0.90;;;0.50;;
16113;SDS011;8161;-33.910;151.156;2023-08-21T03:29:56;1.13;;;0.60;;
16113;SDS011;8161;-33.910;151.156;2023-08-21T03:32:26;0.88;;;0.50;;
16113;SDS011;8161;-33.910;151.156;2023-08-21T03:34:54;1.13;;;0.70;;
16113;SDS011;8161;-33.910;151.156;2023-08-21T03:37:22;1.27;;;0.65;;
16113;SDS011;8161;-33.910;151.156;2023-08-21T03:39:49;2.88;;;0.75;;
16113;SDS011;8161;-33.910;151.156;2023-08-21T03:42:16;1.65;;;0.70;;
16113;SDS011;8161;-33.910;151.156;2023-08-21T03:44:43;1.00;;;0.68;;
16113;SDS011;8161;-33.910;151.156;2023-08-21T03:47:14;1.77;;;0.63;;
16113;SDS011;8161;-33.910;151.156;2023-08-21T03:49:41;2.08;;;0.70;;
16113;SDS011;8161;-33.910;151.156;2023-08-21T03:52:13;1.20;;;0.70;;
16113;SDS011;8161;-33.910;151.156;2023-08-21T03:54:40;1.20;;;0.60;;
16113;SDS011;8161;-33.910;151.156;2023-08-21T03:57:08;2.45;;;0.60;;
16113;SDS011;8161;-33.910;151.156;2023-08-21T03:59:35;1.20;;;0.70;;
16113;SDS011;8161;-33.910;151.156;2023-08-21T04:02:02;1.80;;;0.60;;
16113;SDS011;8161;-33.910;151.156;2023-08-21T04:04:29;1.50;;;0.50;;
16113;SDS011;8161;-33.910;151.156;2023-08-21T04:06:56;1.10;;;0.60;;
16113;SDS011;8161;-33.910;151.156;2023-08-21T04:09:23;1.98;;;0.73;;
16113;SDS011;8161;-33.910;151.156;2023-08-21T04:11:50;2.28;;;0.85;;
16113;SDS011;8161;-33.910;151.156;2023-08-21T04:14:18;2.40;;;1.00;;
16113;SDS011;8161;-33.910;151.156;2023-08-21T04:16:45;2.50;;;1.10;;
16113;SDS011;8161;-33.910;151.156;2023-08-21T04:19:12;3.20;;;1.02;;
16113;SDS011;8161;-33.910;151.156;2023-08-21T04:21:39;2.70;;;1.00;;
16113;SDS011;8161;-33.910;151.156;2023-08-21T04:24:09;3.58;;;1.08;;
16113;SDS011;8161;-33.910;151.156;2023-08-21T04:26:39;1.80;;;0.88;;
16113;SDS011;8161;-33.910;151.156;2023-08-21T04:29:07;2.08;;;0.90;;
16113;SDS011;8161;-33.910;151.156;2023-08-21T04:31:35;3.70;;;1.40;;
16113;SDS011;8161;-33.910;151.156;2023-08-21T04:34:02;4.40;;;1.20;;
16113;SDS011;8161;-33.910;151.156;2023-08-21T04:36:29;4.10;;;1.13;;
16113;SDS011;8161;-33.910;151.156;2023-08-21T04:38:56;4.68;;;2.10;;
16113;SDS011;8161;-33.910;151.156;2023-08-21T04:41:23;5.13;;;1.00;;
16113;SDS011;8161;-33.910;151.156;2023-08-21T04:43:51;3.28;;;1.40;;
16113;SDS011;8161;-33.910;151.156;2023-08-21T04:46:18;2.90;;;1.15;;
16113;SDS011;8161;-33.910;151.156;2023-08-21T04:48:48;2.25;;;1.08;;
16113;SDS011;8161;-33.910;151.156;2023-08-21T04:51:15;3.28;;;0.80;;
16113;SDS011;8161;-33.910;151.156;2023-08-21T04:53:43;1.58;;;0.77;;
16113;SDS011;8161;-33.910;151.156;2023-08-21T04:56:10;1.83;;;0.80;;
16113;SDS011;8161;-33.910;151.156;2023-08-21T04:58:37;3.35;;;1.02;;
16113;SDS011;8161;-33.910;151.156;2023-08-21T05:01:04;2.38;;;0.93;;
16113;SDS011;8161;-33.910;151.156;2023-08-21T05:03:32;3.70;;;1.83;;
16113;SDS011;8161;-33.910;151.156;2023-08-21T05:05:59;3.60;;;0.80;;
16113;SDS011;8161;-33.910;151.156;2023-08-21T05:08:26;6.88;;;0.90;;
16113;SDS011;8161;-33.910;151.156;2023-08-21T05:10:57;2.65;;;1.00;;
16113;SDS011;8161;-33.910;151.156;2023-08-21T05:13:25;4.32;;;1.10;;
16113;SDS011;8161;-33.910;151.156;2023-08-21T05:15:53;2.15;;;0.90;;
16113;SDS011;8161;-33.910;151.156;2023-08-21T05:18:24;3.72;;;1.10;;
16113;SDS011;8161;-33.910;151.156;2023-08-21T05:20:53;5.57;;;1.23;;
16113;SDS011;8161;-33.910;151.156;2023-08-21T05:23:21;1.38;;;0.80;;
16113;SDS011;8161;-33.910;151.156;2023-08-21T05:25:49;2.60;;;1.10;;
16113;SDS011;8161;-33.910;151.156;2023-08-21T05:28:16;2.22;;;1.02;;
16113;SDS011;8161;-33.910;151.156;2023-08-21T05:30:46;3.85;;;1.05;;
16113;SDS011;8161;-33.910;151.156;2023-08-21T05:33:14;1.92;;;1.08;;
16113;SDS011;8161;-33.910;151.156;2023-08-21T05:35:42;2.88;;;1.20;;
16113;SDS011;8161;-33.910;151.156;2023-08-21T05:38:09;2.47;;;1.00;;
16113;SDS011;8161;-33.910;151.156;2023-08-21T05:40:36;7.40;;;0.98;;
16113;SDS011;8161;-33.910;151.156;2023-08-21T05:43:03;3.13;;;1.02;;
16113;SDS011;8161;-33.910;151.156;2023-08-21T05:45:31;3.78;;;1.30;;
16113;SDS011;8161;-33.910;151.156;2023-08-21T05:48:01;2.13;;;1.05;;
16113;SDS011;8161;-33.910;151.156;2023-08-21T05:50:28;3.90;;;0.75;;
16113;SDS011;8161;-33.910;151.156;2023-08-21T05:52:55;3.78;;;1.20;;
16113;SDS011;8161;-33.910;151.156;2023-08-21T05:55:23;2.20;;;0.82;;
16113;SDS011;8161;-33.910;151.156;2023-08-21T05:57:50;2.85;;;0.80;;
16113;SDS011;8161;-33.910;151.156;2023-08-21T06:00:18;1.55;;;1.00;;
16113;SDS011;8161;-33.910;151.156;2023-08-21T06:02:45;1.42;;;0.80;;
16113;SDS011;8161;-33.910;151.156;2023-08-21T06:05:12;5.10;;;1.05;;
16113;SDS011;8161;-33.910;151.156;2023-08-21T06:07:40;4.40;;;2.05;;
16113;SDS011;8161;-33.910;151.156;2023-08-21T06:10:09;1.98;;;1.00;;
16113;SDS011;8161;-33.910;151.156;2023-08-21T06:12:40;4.47;;;1.58;;
16113;SDS011;8161;-33.910;151.156;2023-08-21T06:15:16;2.22;;;1.00;;
16113;SDS011;8161;-33.910;151.156;2023-08-21T06:17:44;2.15;;;1.25;;
16113;SDS011;8161;-33.910;151.156;2023-08-21T06:20:11;6.47;;;1.30;;
16113;SDS011;8161;-33.910;151.156;2023-08-21T06:22:39;2.75;;;0.98;;
16113;SDS011;8161;-33.910;151.156;2023-08-21T06:25:09;2.00;;;1.00;;
16113;SDS011;8161;-33.910;151.156;2023-08-21T06:27:36;2.38;;;1.00;;
16113;SDS011;8161;-33.910;151.156;2023-08-21T06:30:03;2.88;;;1.63;;
16113;SDS011;8161;-33.910;151.156;2023-08-21T06:32:31;1.65;;;0.85;;
16113;SDS011;8161;-33.910;151.156;2023-08-21T06:34:58;3.60;;;0.68;;
16113;SDS011;8161;-33.910;151.156;2023-08-21T06:37:26;2.95;;;0.82;;
16113;SDS011;8161;-33.910;151.156;2023-08-21T06:39:53;1.50;;;1.13;;
16113;SDS011;8161;-33.910;151.156;2023-08-21T06:42:20;4.03;;;1.00;;
16113;SDS011;8161;-33.910;151.156;2023-08-21T06:44:47;2.28;;;0.95;;
16113;SDS011;8161;-33.910;151.156;2023-08-21T06:47:15;3.25;;;1.38;;
16113;SDS011;8161;-33.910;151.156;2023-08-21T06:49:45;2.85;;;1.25;;
16113;SDS011;8161;-33.910;151.156;2023-08-21T06:52:16;2.17;;;1.10;;
16113;SDS011;8161;-33.910;151.156;2023-08-21T06:54:44;4.65;;;1.65;;
16113;SDS011;8161;-33.910;151.156;2023-08-21T06:57:11;3.47;;;1.20;;
16113;SDS011;8161;-33.910;151.156;2023-08-21T06:59:38;2.00;;;0.88;;
16113;SDS011;8161;-33.910;151.156;2023-08-21T07:02:05;4.95;;;1.20;;
16113;SDS011;8161;-33.910;151.156;2023-08-21T07:04:33;3.65;;;1.48;;
16113;SDS011;8161;-33.910;151.156;2023-08-21T07:07:15;5.22;;;1.75;;
16113;SDS011;8161;-33.910;151.156;2023-08-21T07:09:43;3.03;;;1.00;;
16113;SDS011;8161;-33.910;151.156;2023-08-21T07:12:10;1.35;;;0.82;;
16113;SDS011;8161;-33.910;151.156;2023-08-21T07:14:37;3.63;;;0.90;;
16113;SDS011;8161;-33.910;151.156;2023-08-21T07:17:04;3.60;;;0.93;;
16113;SDS011;8161;-33.910;151.156;2023-08-21T07:19:32;3.22;;;1.10;;
16113;SDS011;8161;-33.910;151.156;2023-08-21T07:21:59;2.30;;;1.30;;
16113;SDS011;8161;-33.910;151.156;2023-08-21T07:24:26;3.28;;;1.27;;
16113;SDS011;8161;-33.910;151.156;2023-08-21T07:26:56;5.32;;;1.10;;
16113;SDS011;8161;-33.910;151.156;2023-08-21T07:29:32;2.28;;;1.10;;
16113;SDS011;8161;-33.910;151.156;2023-08-21T07:32:01;1.88;;;0.95;;
16113;SDS011;8161;-33.910;151.156;2023-08-21T07:34:29;5.10;;;1.13;;
16113;SDS011;8161;-33.910;151.156;2023-08-21T07:36:56;4.10;;;1.05;;
16113;SDS011;8161;-33.910;151.156;2023-08-21T07:39:24;3.40;;;1.25;;
16113;SDS011;8161;-33.910;151.156;2023-08-21T07:41:51;3.80;;;1.10;;
16113;SDS011;8161;-33.910;151.156;2023-08-21T07:44:18;1.65;;;0.98;;
16113;SDS011;8161;-33.910;151.156;2023-08-21T07:46:49;2.35;;;1.30;;
16113;SDS011;8161;-33.910;151.156;2023-08-21T07:49:19;5.63;;;1.33;;
16113;SDS011;8161;-33.910;151.156;2023-08-21T07:51:49;5.57;;;1.65;;
16113;SDS011;8161;-33.910;151.156;2023-08-21T07:54:16;5.00;;;1.20;;
16113;SDS011;8161;-33.910;151.156;2023-08-21T07:56:44;5.70;;;1.10;;
16113;SDS011;8161;-33.910;151.156;2023-08-21T07:59:14;4.78;;;1.40;;
16113;SDS011;8161;-33.910;151.156;2023-08-21T08:01:47;3.40;;;1.30;;
16113;SDS011;8161;-33.910;151.156;2023-08-21T08:04:21;5.60;;;1.33;;
16113;SDS011;8161;-33.910;151.156;2023-08-21T08:06:48;4.35;;;1.23;;
16113;SDS011;8161;-33.910;151.156;2023-08-21T08:09:15;7.63;;;1.70;;
16113;SDS011;8161;-33.910;151.156;2023-08-21T08:11:43;5.10;;;1.45;;
16113;SDS011;8161;-33.910;151.156;2023-08-21T08:14:11;2.85;;;1.20;;
16113;SDS011;8161;-33.910;151.156;2023-08-21T08:16:38;11.52;;;2.15;;
16113;SDS011;8161;-33.910;151.156;2023-08-21T08:19:05;3.35;;;1.35;;
16113;SDS011;8161;-33.910;151.156;2023-08-21T08:21:33;3.92;;;1.52;;
16113;SDS011;8161;-33.910;151.156;2023-08-21T08:24:10;3.00;;;1.23;;
16113;SDS011;8161;-33.910;151.156;2023-08-21T08:26:46;2.55;;;1.48;;
16113;SDS011;8161;-33.910;151.156;2023-08-21T08:29:14;2.85;;;1.23;;
16113;SDS011;8161;-33.910;151.156;2023-08-21T08:31:41;2.80;;;1.33;;
16113;SDS011;8161;-33.910;151.156;2023-08-21T08:34:08;4.57;;;1.27;;
16113;SDS011;8161;-33.910;151.156;2023-08-21T08:36:36;3.00;;;1.65;;
16113;SDS011;8161;-33.910;151.156;2023-08-21T08:39:07;3.00;;;1.50;;
16113;SDS011;8161;-33.910;151.156;2023-08-21T08:44:04;2.83;;;1.40;;
16113;SDS011;8161;-33.910;151.156;2023-08-21T08:46:31;2.40;;;1.30;;
16113;SDS011;8161;-33.910;151.156;2023-08-21T08:48:58;3.78;;;1.27;;
16113;SDS011;8161;-33.910;151.156;2023-08-21T08:51:27;3.28;;;1.50;;
16113;SDS011;8161;-33.910;151.156;2023-08-21T08:53:55;5.25;;;1.67;;
16113;SDS011;8161;-33.910;151.156;2023-08-21T08:56:22;3.60;;;1.38;;
16113;SDS011;8161;-33.910;151.156;2023-08-21T08:58:49;3.47;;;1.40;;
16113;SDS011;8161;-33.910;151.156;2023-08-21T09:01:22;4.15;;;1.30;;
16113;SDS011;8161;-33.910;151.156;2023-08-21T09:03:49;4.03;;;1.60;;
16113;SDS011;8161;-33.910;151.156;2023-08-21T09:06:16;2.35;;;1.30;;
16113;SDS011;8161;-33.910;151.156;2023-08-21T09:08:53;4.70;;;1.50;;
16113;SDS011;8161;-33.910;151.156;2023-08-21T09:11:21;4.78;;;1.50;;
16113;SDS011;8161;-33.910;151.156;2023-08-21T09:13:49;3.92;;;1.70;;
16113;SDS011;8161;-33.910;151.156;2023-08-21T09:16:19;3.20;;;1.73;;
16113;SDS011;8161;-33.910;151.156;2023-08-21T09:18:48;3.75;;;1.60;;
16113;SDS011;8161;-33.910;151.156;2023-08-21T09:21:22;2.47;;;1.40;;
16113;SDS011;8161;-33.910;151.156;2023-08-21T09:23:59;3.30;;;1.42;;
16113;SDS011;8161;-33.910;151.156;2023-08-21T09:26:30;4.28;;;1.70;;
16113;SDS011;8161;-33.910;151.156;2023-08-21T09:29:02;3.92;;;1.45;;
16113;SDS011;8161;-33.910;151.156;2023-08-21T09:31:31;3.40;;;1.80;;
16113;SDS011;8161;-33.910;151.156;2023-08-21T09:33:59;4.50;;;2.10;;
16113;SDS011;8161;-33.910;151.156;2023-08-21T09:36:30;4.72;;;2.05;;
16113;SDS011;8161;-33.910;151.156;2023-08-21T09:38:57;4.93;;;1.85;;
16113;SDS011;8161;-33.910;151.156;2023-08-21T09:41:25;3.65;;;1.58;;
16113;SDS011;8161;-33.910;151.156;2023-08-21T09:43:52;4.22;;;1.98;;
16113;SDS011;8161;-33.910;151.156;2023-08-21T09:46:28;4.93;;;2.20;;
16113;SDS011;8161;-33.910;151.156;2023-08-21T09:48:55;3.97;;;1.70;;
16113;SDS011;8161;-33.910;151.156;2023-08-21T09:51:22;4.78;;;1.95;;
16113;SDS011;8161;-33.910;151.156;2023-08-21T09:53:50;4.00;;;1.98;;
16113;SDS011;8161;-33.910;151.156;2023-08-21T09:56:20;4.47;;;1.65;;
16113;SDS011;8161;-33.910;151.156;2023-08-21T09:58:47;4.18;;;1.65;;
16113;SDS011;8161;-33.910;151.156;2023-08-21T10:01:15;4.20;;;1.50;;
16113;SDS011;8161;-33.910;151.156;2023-08-21T10:03:43;3.40;;;1.83;;
16113;SDS011;8161;-33.910;151.156;2023-08-21T10:06:15;3.00;;;1.30;;
16113;SDS011;8161;-33.910;151.156;2023-08-21T10:08:46;3.97;;;1.50;;
16113;SDS011;8161;-33.910;151.156;2023-08-21T10:11:15;2.97;;;1.40;;
16113;SDS011;8161;-33.910;151.156;2023-08-21T10:13:44;4.28;;;1.40;;
16113;SDS011;8161;-33.910;151.156;2023-08-21T10:16:11;2.60;;;1.30;;
16113;SDS011;8161;-33.910;151.156;2023-08-21T10:18:43;2.60;;;1.40;;
16113;SDS011;8161;-33.910;151.156;2023-08-21T10:21:20;2.95;;;1.30;;
16113;SDS011;8161;-33.910;151.156;2023-08-21T10:23:48;3.50;;;1.60;;
16113;SDS011;8161;-33.910;151.156;2023-08-21T10:26:16;2.20;;;1.20;;
16113;SDS011;8161;-33.910;151.156;2023-08-21T10:28:49;2.22;;;1.50;;
16113;SDS011;8161;-33.910;151.156;2023-08-21T10:31:38;5.10;;;1.80;;
16113;SDS011;8161;-33.910;151.156;2023-08-21T10:34:06;4.60;;;1.90;;
16113;SDS011;8161;-33.910;151.156;2023-08-21T10:44:34;5.10;;;2.27;;
16113;SDS011;8161;-33.910;151.156;2023-08-21T10:49:44;3.90;;;1.90;;
16113;SDS011;8161;-33.910;151.156;2023-08-21T10:52:11;3.67;;;1.80;;
16113;SDS011;8161;-33.910;151.156;2023-08-21T10:54:45;3.67;;;1.70;;
16113;SDS011;8161;-33.910;151.156;2023-08-21T10:57:13;3.50;;;1.63;;
16113;SDS011;8161;-33.910;151.156;2023-08-21T10:59:50;3.45;;;1.52;;
16113;SDS011;8161;-33.910;151.156;2023-08-21T11:02:17;5.13;;;1.80;;
16113;SDS011;8161;-33.910;151.156;2023-08-21T11:04:45;2.60;;;1.30;;
16113;SDS011;8161;-33.910;151.156;2023-08-21T11:07:12;3.08;;;1.33;;
16113;SDS011;8161;-33.910;151.156;2023-08-21T11:09:39;2.70;;;1.40;;
16113;SDS011;8161;-33.910;151.156;2023-08-21T11:12:10;4.22;;;1.30;;
16113;SDS011;8161;-33.910;151.156;2023-08-21T11:14:38;5.28;;;1.63;;
16113;SDS011;8161;-33.910;151.156;2023-08-21T11:17:09;3.28;;;1.40;;
16113;SDS011;8161;-33.910;151.156;2023-08-21T11:19:36;4.67;;;1.37;;
16113;SDS011;8161;-33.910;151.156;2023-08-21T11:22:07;4.15;;;1.73;;
16113;SDS011;8161;-33.910;151.156;2023-08-21T11:27:04;3.80;;;1.50;;
16113;SDS011;8161;-33.910;151.156;2023-08-21T11:29:41;3.10;;;1.33;;
16113;SDS011;8161;-33.910;151.156;2023-08-21T11:32:10;4.10;;;1.50;;
16113;SDS011;8161;-33.910;151.156;2023-08-21T11:34:37;3.72;;;1.50;;
16113;SDS011;8161;-33.910;151.156;2023-08-21T11:37:04;5.38;;;1.83;;
16113;SDS011;8161;-33.910;151.156;2023-08-21T11:39:41;2.88;;;1.42;;
16113;SDS011;8161;-33.910;151.156;2023-08-21T11:42:10;3.40;;;1.58;;
16113;SDS011;8161;-33.910;151.156;2023-08-21T11:44:41;4.57;;;1.75;;
16113;SDS011;8161;-33.910;151.156;2023-08-21T11:47:09;4.40;;;1.20;;
16113;SDS011;8161;-33.910;151.156;2023-08-21T11:49:36;2.50;;;1.40;;
16113;SDS011;8161;-33.910;151.156;2023-08-21T11:52:03;2.30;;;1.47;;
16113;SDS011;8161;-33.910;151.156;2023-08-21T11:54:37;4.00;;;1.60;;
16113;SDS011;8161;-33.910;151.156;2023-08-21T11:57:11;2.70;;;1.50;;
16113;SDS011;8161;-33.910;151.156;2023-08-21T11:59:39;3.10;;;1.35;;
16113;SDS011;8161;-33.910;151.156;2023-08-21T12:02:25;3.78;;;1.40;;
16113;SDS011;8161;-33.910;151.156;2023-08-21T12:05:14;2.63;;;1.23;;
16113;SDS011;8161;-33.910;151.156;2023-08-21T12:07:41;3.10;;;1.42;;
16113;SDS011;8161;-33.910;151.156;2023-08-21T12:10:08;2.00;;;1.30;;
16113;SDS011;8161;-33.910;151.156;2023-08-21T12:12:35;3.83;;;1.55;;
16113;SDS011;8161;-33.910;151.156;2023-08-21T12:15:11;3.20;;;1.70;;
16113;SDS011;8161;-33.910;151.156;2023-08-21T12:17:39;3.08;;;1.70;;
16113;SDS011;8161;-33.910;151.156;2023-08-21T12:20:07;2.70;;;1.45;;
16113;SDS011;8161;-33.910;151.156;2023-08-21T12:22:37;3.38;;;1.50;;
16113;SDS011;8161;-33.910;151.156;2023-08-21T12:25:13;3.97;;;1.45;;
16113;SDS011;8161;-33.910;151.156;2023-08-21T12:27:41;3.05;;;1.60;;
16113;SDS011;8161;-33.910;151.156;2023-08-21T12:30:09;2.65;;;1.52;;
16113;SDS011;8161;-33.910;151.156;2023-08-21T12:32:36;3.00;;;1.83;;
16113;SDS011;8161;-33.910;151.156;2023-08-21T12:35:06;2.70;;;1.90;;
16113;SDS011;8161;-33.910;151.156;2023-08-21T12:37:36;2.83;;;1.47;;
16113;SDS011;8161;-33.910;151.156;2023-08-21T12:40:06;3.30;;;1.60;;
16113;SDS011;8161;-33.910;151.156;2023-08-21T12:42:34;6.63;;;1.63;;
16113;SDS011;8161;-33.910;151.156;2023-08-21T12:45:01;2.50;;;1.40;;
16113;SDS011;8161;-33.910;151.156;2023-08-21T12:47:28;3.60;;;1.70;;
16113;SDS011;8161;-33.910;151.156;2023-08-21T12:49:55;2.65;;;1.70;;
16113;SDS011;8161;-33.910;151.156;2023-08-21T12:52:22;4.00;;;1.50;;
16113;SDS011;8161;-33.910;151.156;2023-08-21T12:54:50;3.42;;;1.70;;
16113;SDS011;8161;-33.910;151.156;2023-08-21T12:57:17;4.03;;;1.53;;
16113;SDS011;8161;-33.910;151.156;2023-08-21T12:59:44;2.67;;;1.80;;
16113;SDS011;8161;-33.910;151.156;2023-08-21T13:02:11;3.92;;;1.58;;
16113;SDS011;8161;-33.910;151.156;2023-08-21T13:04:38;3.05;;;1.70;;
16113;SDS011;8161;-33.910;151.156;2023-08-21T13:07:05;3.85;;;1.80;;
16113;SDS011;8161;-33.910;151.156;2023-08-21T13:09:32;2.90;;;1.63;;
16113;SDS011;8161;-33.910;151.156;2023-08-21T13:12:00;3.30;;;1.70;;
16113;SDS011;8161;-33.910;151.156;2023-08-21T13:14:27;3.95;;;1.65;;
16113;SDS011;8161;-33.910;151.156;2023-08-21T13:16:54;3.07;;;1.53;;
16113;SDS011;8161;-33.910;151.156;2023-08-21T13:19:21;3.28;;;1.63;;
16113;SDS011;8161;-33.910;151.156;2023-08-21T13:21:48;2.80;;;1.45;;
16113;SDS011;8161;-33.910;151.156;2023-08-21T13:24:16;3.83;;;1.70;;
16113;SDS011;8161;-33.910;151.156;2023-08-21T13:26:43;4.28;;;1.70;;
16113;SDS011;8161;-33.910;151.156;2023-08-21T13:29:10;4.07;;;1.75;;
16113;SDS011;8161;-33.910;151.156;2023-08-21T13:31:38;3.23;;;1.80;;
16113;SDS011;8161;-33.910;151.156;2023-08-21T13:34:05;3.75;;;1.80;;
16113;SDS011;8161;-33.910;151.156;2023-08-21T13:36:32;4.68;;;1.90;;
16113;SDS011;8161;-33.910;151.156;2023-08-21T13:38:59;2.97;;;1.67;;
16113;SDS011;8161;-33.910;151.156;2023-08-21T13:41:26;4.10;;;1.85;;
16113;SDS011;8161;-33.910;151.156;2023-08-21T13:43:53;5.00;;;1.90;;
16113;SDS011;8161;-33.910;151.156;2023-08-21T13:46:20;3.40;;;2.00;;
16113;SDS011;8161;-33.910;151.156;2023-08-21T13:48:47;3.17;;;2.05;;
16113;SDS011;8161;-33.910;151.156;2023-08-21T13:51:24;3.22;;;1.88;;
16113;SDS011;8161;-33.910;151.156;2023-08-21T13:53:51;3.33;;;1.80;;
16113;SDS011;8161;-33.910;151.156;2023-08-21T13:56:18;4.70;;;1.80;;
16113;SDS011;8161;-33.910;151.156;2023-08-21T13:58:45;3.40;;;1.90;;
16113;SDS011;8161;-33.910;151.156;2023-08-21T14:01:12;4.68;;;1.80;;
16113;SDS011;8161;-33.910;151.156;2023-08-21T14:03:40;3.97;;;1.83;;
16113;SDS011;8161;-33.910;151.156;2023-08-21T14:06:08;4.27;;;1.80;;
16113;SDS011;8161;-33.910;151.156;2023-08-21T14:08:38;3.60;;;1.88;;
16113;SDS011;8161;-33.910;151.156;2023-08-21T14:11:05;4.97;;;2.47;;
16113;SDS011;8161;-33.910;151.156;2023-08-21T14:13:32;3.30;;;2.28;;
16113;SDS011;8161;-33.910;151.156;2023-08-21T14:15:59;5.40;;;2.70;;
16113;SDS011;8161;-33.910;151.156;2023-08-21T14:18:27;4.60;;;3.10;;
16113;SDS011;8161;-33.910;151.156;2023-08-21T14:20:54;4.63;;;2.60;;
16113;SDS011;8161;-33.910;151.156;2023-08-21T14:23:21;3.92;;;2.20;;
16113;SDS011;8161;-33.910;151.156;2023-08-21T14:25:48;3.40;;;2.10;;
16113;SDS011;8161;-33.910;151.156;2023-08-21T14:28:19;4.78;;;2.35;;
16113;SDS011;8161;-33.910;151.156;2023-08-21T14:30:46;3.35;;;2.22;;
16113;SDS011;8161;-33.910;151.156;2023-08-21T14:33:13;3.35;;;2.10;;
16113;SDS011;8161;-33.910;151.156;2023-08-21T14:35:40;4.85;;;2.10;;
16113;SDS011;8161;-33.910;151.156;2023-08-21T14:38:07;4.15;;;2.40;;
16113;SDS011;8161;-33.910;151.156;2023-08-21T14:40:34;3.63;;;2.10;;
16113;SDS011;8161;-33.910;151.156;2023-08-21T14:43:01;4.82;;;2.42;;
16113;SDS011;8161;-33.910;151.156;2023-08-21T14:45:29;4.32;;;2.40;;
16113;SDS011;8161;-33.910;151.156;2023-08-21T14:47:56;3.92;;;2.22;;
16113;SDS011;8161;-33.910;151.156;2023-08-21T14:50:23;6.78;;;2.50;;
16113;SDS011;8161;-33.910;151.156;2023-08-21T14:52:50;6.33;;;2.20;;